Time;durP1;ratioP1;P1;durP2;ratioP2;P2;SDS_P1;SDS_P2;PMS_P1;PMS_P2;Temp;Humidity;BMP_temperature;BMP_pressure;BME280_temperature;BME280_humidity;BME280_pressure;Samples;Min_cycle;Max_cycle;Signal;HPM_P1;HPM_P2
2021/06/02 00:00:38;;;;;;;10.03;6.40;;;15.20;97.30;;;;;;5029105;28;20203;-90
2021/06/02 00:03:08;;;;;;;11.10;7.77;;;15.20;97.30;;;;;;5030125;28;20422;-89
2021/06/02 00:05:33;;;;;;;13.53;7.63;;;15.10;97.30;;;;;;5035049;28;20293;-89
2021/06/02 00:08:02;;;;;;;15.07;7.13;;;15.00;97.30;;;;;;5052855;28;20427;-89
2021/06/02 00:10:27;;;;;;;9.60;7.30;;;15.00;97.30;;;;;;5015547;28;20188;-90
2021/06/02 00:12:53;;;;;;;14.27;7.77;;;15.00;97.30;;;;;;5040159;28;20435;-89
2021/06/02 00:15:20;;;;;;;14.10;7.50;;;15.00;97.30;;;;;;5034275;28;20184;-90
2021/06/02 00:17:45;;;;;;;14.47;7.33;;;14.90;97.30;;;;;;5052943;28;20433;-90
2021/06/02 00:20:12;;;;;;;17.30;8.93;;;14.90;97.30;;;;;;5052722;28;20458;-90
2021/06/02 00:22:38;;;;;;;14.50;7.87;;;14.90;97.30;;;;;;5034864;28;20220;-90
2021/06/02 00:25:05;;;;;;;17.47;9.23;;;14.90;97.30;;;;;;5035374;28;20422;-89
2021/06/02 00:27:32;;;;;;;12.27;7.30;;;14.80;97.30;;;;;;5035599;28;20465;-89
2021/06/02 00:30:02;;;;;;;13.07;8.03;;;14.90;97.30;;;;;;5027365;28;20466;-92
2021/06/02 00:32:29;;;;;;;12.67;7.97;;;14.90;97.30;;;;;;5016614;28;20415;-89
2021/06/02 00:34:55;;;;;;;12.33;7.23;;;14.80;97.30;;;;;;5036429;28;20816;-90
2021/06/02 00:37:22;;;;;;;19.03;8.93;;;14.90;97.30;;;;;;5035929;28;20442;-90
2021/06/02 00:39:47;;;;;;;17.87;8.07;;;14.90;97.30;;;;;;5036003;28;20461;-90
2021/06/02 00:42:14;;;;;;;18.50;8.03;;;14.90;97.30;;;;;;5036687;28;20509;-89
2021/06/02 00:44:39;;;;;;;14.73;8.63;;;14.90;97.30;;;;;;5033420;28;20263;-90
2021/06/02 00:47:05;;;;;;;14.23;8.07;;;15.00;97.30;;;;;;5017180;28;20510;-89
2021/06/02 00:49:31;;;;;;;14.73;8.37;;;15.00;97.30;;;;;;5016942;28;20180;-90
2021/06/02 00:51:57;;;;;;;13.10;7.10;;;15.00;97.30;;;;;;5017194;28;20189;-90
2021/06/02 00:54:25;;;;;;;12.77;8.10;;;15.00;97.30;;;;;;5017268;28;20275;-90
2021/06/02 00:56:53;;;;;;;14.63;8.50;;;15.00;97.30;;;;;;5030079;28;20442;-90
2021/06/02 00:59:31;;;;;;;13.27;8.00;;;15.00;97.30;;;;;;5022627;28;20430;-90
2021/06/02 01:01:58;;;;;;;15.93;8.03;;;15.00;97.30;;;;;;5038222;28;20442;-90
2021/06/02 01:04:26;;;;;;;16.67;8.40;;;15.10;97.30;;;;;;5034475;28;20414;-91
2021/06/02 01:06:53;;;;;;;13.77;7.20;;;15.00;97.30;;;;;;5052110;28;20541;-90
2021/06/02 01:09:21;;;;;;;10.13;7.17;;;15.10;97.30;;;;;;5034674;28;20415;-89
2021/06/02 01:11:48;;;;;;;14.37;8.17;;;15.10;97.30;;;;;;5034408;28;20418;-91
2021/06/02 01:14:15;;;;;;;10.87;7.57;;;15.00;97.30;;;;;;5034423;28;20864;-90
2021/06/02 01:16:40;;;;;;;13.63;8.73;;;15.00;97.30;;;;;;5034418;28;20430;-91
2021/06/02 01:19:10;;;;;;;12.90;8.30;;;15.00;97.30;;;;;;5031949;28;20998;-91
2021/06/02 01:22:01;;;;;;;23.03;9.30;;;15.00;97.30;;;;;;5015599;28;20192;-91
2021/06/02 01:24:28;;;;;;;18.23;9.20;;;15.00;97.30;;;;;;5015000;28;20447;-91
2021/06/02 01:26:56;;;;;;;16.07;9.57;;;15.00;97.30;;;;;;5017794;28;20435;-91
2021/06/02 01:29:23;;;;;;;16.67;9.60;;;15.00;97.30;;;;;;5030434;28;20425;-91
2021/06/02 01:32:12;;;;;;;16.83;10.53;;;15.00;97.30;;;;;;5056497;28;20444;-91
2021/06/02 01:35:16;;;;;;;17.67;10.17;;;14.90;97.30;;;;;;5037845;28;21023;-91
2021/06/02 01:37:45;;;;;;;20.07;10.37;;;14.90;97.30;;;;;;5039726;28;20449;-91
2021/06/02 01:40:53;;;;;;;22.27;10.20;;;14.90;97.30;;;;;;5040175;28;21083;-90
2021/06/02 01:43:48;;;;;;;22.70;11.33;;;14.90;97.30;;;;;;5035812;28;20415;-91
2021/06/02 01:46:28;;;;;;;16.30;9.43;;;14.80;97.30;;;;;;5019898;28;20462;-91
2021/06/02 01:49:15;;;;;;;18.60;10.17;;;14.80;97.30;;;;;;5020823;28;20434;-91
2021/06/02 01:52:37;;;;;;;15.70;9.00;;;14.80;97.30;;;;;;5018972;28;20411;-91
2021/06/02 01:55:45;;;;;;;14.80;9.40;;;14.80;97.30;;;;;;4965566;28;20417;-91
2021/06/02 01:58:38;;;;;;;17.63;10.27;;;14.80;97.30;;;;;;5019341;28;20511;-91
2021/06/02 02:01:35;;;;;;;14.57;9.10;;;14.90;97.30;;;;;;5045182;28;20468;-89
2021/06/02 02:04:54;;;;;;;17.43;9.60;;;14.90;97.30;;;;;;5045474;28;20422;-91
2021/06/02 02:07:31;;;;;;;22.47;11.40;;;14.90;97.30;;;;;;4957557;28;21135;-91
2021/06/02 02:10:32;;;;;;;22.13;10.20;;;14.80;97.30;;;;;;5026690;28;20410;-91
2021/06/02 02:13:06;;;;;;;15.80;9.60;;;14.80;97.30;;;;;;5037321;28;20421;-90
2021/06/02 02:15:59;;;;;;;15.87;9.70;;;14.80;97.30;;;;;;5037980;28;20410;-91
2021/06/02 02:18:51;;;;;;;21.23;10.80;;;14.80;97.30;;;;;;5035089;28;20506;-90
2021/06/02 02:21:41;;;;;;;17.83;10.67;;;14.80;97.30;;;;;;5018080;28;20466;-91
2021/06/02 02:24:13;;;;;;;23.20;9.60;;;14.80;97.30;;;;;;5017885;28;20420;-91
2021/06/02 02:27:00;;;;;;;16.87;9.87;;;14.80;97.30;;;;;;5017818;28;20438;-91
2021/06/02 02:29:57;;;;;;;20.23;10.30;;;14.80;97.30;;;;;;5026249;28;20434;-90
2021/06/02 02:32:44;;;;;;;19.10;9.33;;;14.80;97.30;;;;;;5038395;28;20433;-91
2021/06/02 02:35:38;;;;;;;17.27;10.53;;;14.80;97.30;;;;;;5026240;28;20475;-91
2021/06/02 02:38:30;;;;;;;18.50;10.47;;;14.80;97.30;;;;;;4982838;28;20426;-91
2021/06/02 02:41:09;;;;;;;18.40;10.60;;;14.80;97.30;;;;;;5018204;28;20981;-91
2021/06/02 02:43:56;;;;;;;16.53;9.97;;;14.80;97.30;;;;;;5035684;28;20505;-91
2021/06/02 02:46:30;;;;;;;16.77;10.43;;;14.70;97.30;;;;;;5018087;28;20537;-91
2021/06/02 02:49:20;;;;;;;20.93;11.30;;;14.70;97.30;;;;;;5017297;28;20830;-90
2021/06/02 02:52:19;;;;;;;18.90;10.73;;;14.70;97.30;;;;;;5034498;28;20973;-90
2021/06/02 02:55:02;;;;;;;18.43;11.13;;;14.60;97.30;;;;;;5016644;28;20495;-90
2021/06/02 02:57:36;;;;;;;18.67;10.70;;;14.60;97.30;;;;;;5034164;28;20429;-90
2021/06/02 03:00:07;;;;;;;22.60;10.17;;;14.50;97.30;;;;;;5028382;28;20496;-91
2021/06/02 03:03:00;;;;;;;20.50;10.73;;;14.50;97.30;;;;;;5018865;28;20462;-90
2021/06/02 03:05:29;;;;;;;20.90;10.97;;;14.50;97.30;;;;;;5015642;28;20798;-90
2021/06/02 03:11:56;;;;;;;19.20;11.07;;;14.50;97.30;;;;;;5034460;28;20398;-90
2021/06/02 03:14:37;;;;;;;19.10;10.40;;;14.50;97.30;;;;;;5016844;28;20419;-90
2021/06/02 03:17:22;;;;;;;17.23;10.17;;;14.60;97.30;;;;;;5025985;28;20525;-90
2021/06/02 03:21:02;;;;;;;20.63;9.77;;;14.60;97.30;;;;;;5016302;28;20517;-91
2021/06/02 03:23:52;;;;;;;17.27;9.17;;;14.60;97.30;;;;;;5029000;28;20407;-90
2021/06/02 03:26:25;;;;;;;21.40;9.67;;;14.60;97.30;;;;;;5017921;28;20411;-90
2021/06/02 03:29:01;;;;;;;18.07;9.73;;;14.60;97.30;;;;;;5017388;28;20958;-90
2021/06/02 03:31:58;;;;;;;21.60;11.50;;;14.60;97.30;;;;;;5034229;28;20410;-90
2021/06/02 03:34:42;;;;;;;19.97;11.53;;;14.60;97.30;;;;;;5037142;28;20422;-90
2021/06/02 03:37:29;;;;;;;23.87;11.00;;;14.60;97.30;;;;;;5037249;28;20955;-91
2021/06/02 03:40:16;;;;;;;17.40;11.20;;;14.50;97.30;;;;;;5034582;28;20996;-90
2021/06/02 03:44:03;;;;;;;22.57;11.83;;;14.50;97.30;;;;;;5016384;28;20404;-90
2021/06/02 03:47:13;;;;;;;31.90;11.97;;;14.50;97.30;;;;;;5022896;28;20411;-90
2021/06/02 03:50:03;;;;;;;19.17;12.20;;;14.40;97.30;;;;;;4993654;28;20415;-90
2021/06/02 03:52:47;;;;;;;20.30;11.60;;;14.40;97.30;;;;;;4981268;28;20459;-90
2021/06/02 03:55:22;;;;;;;19.43;12.00;;;14.40;97.30;;;;;;4988017;28;20410;-91
2021/06/02 03:58:00;;;;;;;21.43;12.37;;;14.40;97.30;;;;;;4997320;28;20450;-91
2021/06/02 04:00:43;;;;;;;25.40;12.50;;;14.40;97.30;;;;;;5015220;28;20455;-90
2021/06/02 04:03:25;;;;;;;25.13;12.20;;;14.40;97.30;;;;;;5015492;28;20537;-90
2021/06/02 04:06:28;;;;;;;26.73;11.83;;;14.40;97.30;;;;;;5021586;28;20418;-91
2021/06/02 04:09:13;;;;;;;22.27;11.43;;;14.40;97.30;;;;;;5033868;28;20426;-90
2021/06/02 04:11:54;;;;;;;21.80;12.13;;;14.40;97.30;;;;;;5024678;28;20422;-91
2021/06/02 04:14:32;;;;;;;18.90;12.10;;;14.50;97.30;;;;;;5035926;28;20407;-90
2021/06/02 04:16:58;;;;;;;22.60;12.37;;;14.50;97.30;;;;;;5053460;28;20429;-90
2021/06/02 04:19:27;;;;;;;19.70;12.03;;;14.50;97.30;;;;;;5033663;28;20443;-91
2021/06/02 04:22:01;;;;;;;24.80;13.47;;;14.50;97.30;;;;;;5027926;28;20445;-90
2021/06/02 04:24:29;;;;;;;29.30;13.10;;;14.50;97.30;;;;;;5017413;28;20755;-91
2021/06/02 04:26:59;;;;;;;24.70;13.87;;;14.50;97.30;;;;;;5046387;28;20526;-87
2021/06/02 04:29:26;;;;;;;27.50;14.40;;;14.50;97.30;;;;;;5014988;28;20433;-90
2021/06/02 04:31:54;;;;;;;26.13;13.90;;;14.50;97.30;;;;;;4997162;28;20404;-91
2021/06/02 04:34:21;;;;;;;24.13;12.90;;;14.50;97.30;;;;;;5008423;28;20419;-91
2021/06/02 04:36:52;;;;;;;27.23;13.67;;;14.50;97.30;;;;;;5032193;28;20502;-91
2021/06/02 04:39:19;;;;;;;24.83;14.30;;;14.50;97.30;;;;;;5029385;28;20387;-91
2021/06/02 04:41:46;;;;;;;24.33;15.03;;;14.50;97.30;;;;;;4995359;28;20456;-90
2021/06/02 04:44:14;;;;;;;23.07;14.53;;;14.50;97.30;;;;;;4995419;28;20416;-91
2021/06/02 04:46:41;;;;;;;26.03;13.10;;;14.60;97.30;;;;;;4997010;28;20420;-91
2021/06/02 04:49:06;;;;;;;22.13;13.70;;;14.60;97.30;;;;;;4995327;28;20487;-91
2021/06/02 04:51:59;;;;;;;24.17;13.20;;;14.70;97.30;;;;;;4995129;28;20428;-91
2021/06/02 04:54:55;;;;;;;26.80;13.23;;;14.80;97.30;;;;;;4999077;28;20197;-91
2021/06/02 04:57:54;;;;;;;22.60;13.13;;;14.80;97.30;;;;;;4999196;28;20490;-91
2021/06/02 05:00:55;;;;;;;24.33;13.33;;;14.90;97.30;;;;;;5007124;28;20470;-90
2021/06/02 05:03:51;;;;;;;33.10;13.10;;;14.90;97.30;;;;;;5019907;28;20414;-91
2021/06/02 05:07:04;;;;;;;23.47;12.70;;;14.90;97.30;;;;;;5020515;28;20399;-91
2021/06/02 05:10:08;;;;;;;19.30;11.60;;;15.00;97.30;;;;;;4975863;28;20433;-91
2021/06/02 05:16:19;;;;;;;19.07;11.17;;;15.00;97.30;;;;;;5037901;28;20465;-90
2021/06/02 05:22:42;;;;;;;19.83;11.70;;;15.10;97.30;;;;;;5038237;28;20419;-92
2021/06/02 05:25:51;;;;;;;20.97;11.60;;;15.20;97.30;;;;;;5021559;28;20436;-91
2021/06/02 05:28:31;;;;;;;21.70;11.30;;;15.20;97.30;;;;;;5029408;28;20473;-90
2021/06/02 05:31:39;;;;;;;19.93;11.17;;;15.30;97.30;;;;;;5033058;28;20414;-91
2021/06/02 05:34:53;;;;;;;21.77;11.60;;;15.30;97.30;;;;;;5033737;28;20429;-89
2021/06/02 05:37:46;;;;;;;19.87;10.80;;;15.40;97.30;;;;;;5030161;28;20839;-90
2021/06/02 05:40:47;;;;;;;25.63;13.00;;;15.50;97.30;;;;;;5016510;28;20459;-90
2021/06/02 05:44:04;;;;;;;21.67;11.40;;;15.50;97.30;;;;;;5028434;28;20420;-90
2021/06/02 05:47:07;;;;;;;20.30;11.53;;;15.50;97.30;;;;;;5028992;28;20506;-90
2021/06/02 05:50:10;;;;;;;20.30;11.27;;;15.50;97.30;;;;;;5035452;28;20421;-91
2021/06/02 05:53:24;;;;;;;20.57;11.50;;;15.50;97.30;;;;;;5035639;28;20425;-90
2021/06/02 05:56:06;;;;;;;19.47;12.30;;;15.60;97.30;;;;;;5033198;28;20449;-90
2021/06/02 05:58:48;;;;;;;23.07;11.30;;;15.60;97.30;;;;;;5036412;28;20433;-89
2021/06/02 06:01:32;;;;;;;22.90;12.33;;;15.60;97.30;;;;;;5036116;28;20473;-90
2021/06/02 06:04:17;;;;;;;20.03;11.23;;;15.60;97.30;;;;;;5036194;28;20529;-91
2021/06/02 06:07:31;;;;;;;19.40;10.93;;;15.60;97.30;;;;;;5035521;28;20505;-89
2021/06/02 06:10:09;;;;;;;19.17;11.30;;;15.60;97.30;;;;;;4965236;28;20426;-89
2021/06/02 06:12:59;;;;;;;19.00;11.30;;;15.70;97.30;;;;;;5017040;28;20418;-89
2021/06/02 06:15:49;;;;;;;19.27;11.23;;;15.70;97.30;;;;;;5037000;28;20819;-88
2021/06/02 06:18:43;;;;;;;21.90;12.00;;;15.80;97.30;;;;;;5037495;28;20446;-90
2021/06/02 06:21:15;;;;;;;18.70;11.10;;;15.90;97.30;;;;;;5039333;28;21114;-89
2021/06/02 06:23:52;;;;;;;20.10;12.30;;;16.00;97.30;;;;;;5031164;28;20476;-89
2021/06/02 06:26:32;;;;;;;23.77;12.50;;;16.10;97.30;;;;;;5037167;28;20406;-91
2021/06/02 06:29:14;;;;;;;25.90;11.00;;;16.10;97.30;;;;;;5036409;28;20540;-90
2021/06/02 06:31:48;;;;;;;18.50;11.40;;;16.20;97.30;;;;;;5030920;28;20428;-89
2021/06/02 06:34:20;;;;;;;27.13;11.70;;;16.40;97.30;;;;;;5016956;28;20466;-90
2021/06/02 06:36:48;;;;;;;15.10;9.43;;;16.50;97.30;;;;;;5017498;28;21138;-90
2021/06/02 06:39:43;;;;;;;17.80;10.37;;;16.60;97.30;;;;;;5017621;28;20474;-90
2021/06/02 06:42:11;;;;;;;16.73;9.20;;;16.80;97.30;;;;;;5053264;28;20406;-90
2021/06/02 06:44:38;;;;;;;12.60;8.10;;;17.00;97.30;;;;;;5045380;28;20419;-91
2021/06/02 06:47:07;;;;;;;14.60;8.30;;;17.10;97.30;;;;;;5034281;28;20431;-90
2021/06/02 06:49:33;;;;;;;18.13;8.63;;;17.30;97.30;;;;;;5034247;28;20430;-91
2021/06/02 06:52:01;;;;;;;14.07;7.77;;;17.50;97.30;;;;;;5031090;28;20469;-90
2021/06/02 06:54:27;;;;;;;11.10;7.20;;;17.70;97.30;;;;;;5032685;28;20892;-91
2021/06/02 06:56:55;;;;;;;12.67;8.30;;;17.80;97.30;;;;;;5035645;28;20945;-91
2021/06/02 06:59:23;;;;;;;9.33;6.50;;;18.00;97.30;;;;;;5037255;28;20806;-91
2021/06/02 07:01:49;;;;;;;12.87;6.53;;;18.00;97.30;;;;;;5036281;28;20430;-90
2021/06/02 07:04:15;;;;;;;20.20;6.87;;;18.10;97.30;;;;;;5035201;28;20472;-90
2021/06/02 07:06:44;;;;;;;10.40;6.70;;;18.30;97.30;;;;;;5036836;28;20172;-90
2021/06/02 07:09:12;;;;;;;8.00;5.67;;;18.40;97.30;;;;;;5037534;28;20505;-91
2021/06/02 07:11:42;;;;;;;11.07;6.03;;;18.50;97.30;;;;;;5037495;28;20952;-90
2021/06/02 07:14:15;;;;;;;11.40;5.90;;;18.80;97.30;;;;;;5036621;28;20816;-90
2021/06/02 07:16:41;;;;;;;11.53;5.20;;;19.00;97.30;;;;;;5034899;28;20426;-91
2021/06/02 07:19:07;;;;;;;9.20;5.20;;;19.20;96.10;;;;;;5034583;28;20476;-90
2021/06/02 07:21:40;;;;;;;7.63;4.40;;;19.40;95.30;;;;;;5053060;28;20793;-91
2021/06/02 07:24:07;;;;;;;6.37;4.80;;;19.60;93.40;;;;;;5034653;28;20453;-91
2021/06/02 07:26:36;;;;;;;7.53;4.23;;;19.60;92.10;;;;;;5034897;28;20429;-90
2021/06/02 07:29:01;;;;;;;7.80;4.63;;;19.70;92.00;;;;;;5034251;28;20525;-90
2021/06/02 07:31:27;;;;;;;10.20;4.77;;;19.70;91.40;;;;;;5033968;28;21003;-90
2021/06/02 07:33:52;;;;;;;6.93;4.50;;;19.60;90.70;;;;;;5035285;28;20184;-91
2021/06/02 07:36:18;;;;;;;6.60;4.57;;;19.70;91.90;;;;;;5035224;28;20175;-91
2021/06/02 07:38:46;;;;;;;7.07;4.37;;;19.70;91.50;;;;;;5035772;28;20204;-90
2021/06/02 07:41:12;;;;;;;5.70;4.30;;;19.70;90.20;;;;;;5053399;28;20215;-90
2021/06/02 07:43:37;;;;;;;6.13;4.70;;;19.80;91.50;;;;;;5035966;28;20431;-90
2021/06/02 07:46:03;;;;;;;10.03;5.03;;;19.80;91.10;;;;;;5042274;28;20165;-91
2021/06/02 07:48:29;;;;;;;9.40;4.73;;;19.90;90.40;;;;;;5049714;28;20223;-91
2021/06/02 07:50:55;;;;;;;5.83;4.10;;;20.00;90.20;;;;;;5044976;28;20172;-91
2021/06/02 07:53:27;;;;;;;7.43;4.97;;;20.00;91.40;;;;;;5060070;28;20908;-90
2021/06/02 07:55:56;;;;;;;6.90;4.90;;;20.10;89.70;;;;;;5053489;28;20160;-90
2021/06/02 07:58:22;;;;;;;9.90;4.30;;;20.10;89.10;;;;;;5045834;28;20500;-90
2021/06/02 08:00:47;;;;;;;6.10;4.30;;;20.20;89.10;;;;;;5043947;28;20450;-90
2021/06/02 08:03:13;;;;;;;8.30;4.70;;;20.20;89.30;;;;;;5041694;28;20202;-90
2021/06/02 08:05:38;;;;;;;13.80;5.50;;;20.20;89.00;;;;;;5035522;28;20211;-90
2021/06/02 08:08:06;;;;;;;7.80;4.57;;;20.30;89.80;;;;;;5035201;28;20196;-90
2021/06/02 08:10:39;;;;;;;8.00;5.33;;;20.20;89.20;;;;;;5034886;28;20195;-90
2021/06/02 08:13:04;;;;;;;6.00;4.90;;;20.20;90.50;;;;;;5034357;28;20448;-91
2021/06/02 08:15:33;;;;;;;18.03;5.17;;;20.20;89.90;;;;;;5034885;28;20497;-91
2021/06/02 08:17:58;;;;;;;12.63;5.27;;;20.20;90.80;;;;;;5034411;28;20226;-91
2021/06/02 08:20:26;;;;;;;7.60;4.27;;;20.30;91.20;;;;;;5035681;28;20584;-91
2021/06/02 08:22:56;;;;;;;9.27;4.80;;;20.30;90.90;;;;;;5035761;28;20176;-91
2021/06/02 08:25:27;;;;;;;8.67;5.13;;;20.40;90.80;;;;;;5035644;28;20435;-90
2021/06/02 08:27:53;;;;;;;5.30;3.93;;;20.50;90.80;;;;;;5069570;28;20468;-91
2021/06/02 08:30:18;;;;;;;7.23;4.40;;;20.50;89.10;;;;;;5073927;28;20411;-91
2021/06/02 08:32:46;;;;;;;7.83;4.23;;;20.50;89.70;;;;;;5035548;28;20236;-91
2021/06/02 08:35:15;;;;;;;9.20;4.40;;;20.60;90.50;;;;;;5035470;28;20705;-91
2021/06/02 08:38:09;;;;;;;6.50;4.23;;;20.80;90.10;;;;;;5056949;28;20430;-91
2021/06/02 08:41:28;;;;;;;7.10;4.37;;;20.90;89.80;;;;;;5040422;28;20971;-91
2021/06/02 08:44:19;;;;;;;8.33;4.57;;;21.10;89.00;;;;;;4959574;28;20418;-91
2021/06/02 08:47:58;;;;;;;7.43;4.23;;;21.20;86.60;;;;;;4960661;28;20429;-91
2021/06/02 08:50:49;;;;;;;6.20;4.80;;;21.40;87.80;;;;;;4902522;29;21022;-91
2021/06/02 08:57:29;;;;;;;5.70;4.17;;;21.60;86.30;;;;;;4909363;29;20434;-91
2021/06/02 08:59:55;;;;;;;15.60;4.40;;;21.60;85.80;;;;;;4903123;28;20467;-91
2021/06/02 09:02:20;;;;;;;6.93;4.60;;;21.60;85.90;;;;;;5023216;28;20423;-91
2021/06/02 09:04:46;;;;;;;6.03;4.20;;;21.70;86.60;;;;;;5052106;28;20191;-90
2021/06/02 09:07:27;;;;;;;5.93;4.13;;;21.90;85.40;;;;;;5055117;28;20196;-90
2021/06/02 09:10:00;;;;;;;7.73;4.63;;;22.10;84.30;;;;;;5037171;28;20199;-91
2021/06/02 09:12:40;;;;;;;7.97;4.10;;;22.20;84.40;;;;;;5022030;28;20427;-92
2021/06/02 09:15:19;;;;;;;5.20;3.73;;;22.30;85.70;;;;;;5018581;28;20437;-91
2021/06/02 09:17:53;;;;;;;5.70;4.43;;;22.40;84.30;;;;;;5017782;28;20446;-92
2021/06/02 09:20:56;;;;;;;9.07;3.93;;;22.60;83.60;;;;;;5019406;28;20949;-91
2021/06/02 09:23:29;;;;;;;9.00;4.57;;;22.70;82.90;;;;;;4968633;28;20446;-91
2021/06/02 09:26:12;;;;;;;5.40;4.00;;;22.80;82.50;;;;;;5022141;28;20933;-91
2021/06/02 09:28:59;;;;;;;9.80;4.63;;;22.90;82.20;;;;;;5029764;28;20743;-91
2021/06/02 09:31:44;;;;;;;6.43;3.50;;;23.10;81.30;;;;;;5022284;28;20983;-91
2021/06/02 09:34:14;;;;;;;4.83;3.77;;;23.20;80.70;;;;;;5037869;28;20450;-91
2021/06/02 09:36:41;;;;;;;3.80;3.33;;;23.30;79.90;;;;;;5032159;28;21055;-91
2021/06/02 09:39:18;;;;;;;4.47;3.20;;;23.40;81.10;;;;;;5029833;28;20458;-91
2021/06/02 09:42:03;;;;;;;3.47;3.03;;;23.50;77.30;;;;;;5020667;28;20455;-90
2021/06/02 09:44:30;;;;;;;6.70;3.60;;;23.60;77.60;;;;;;5019983;28;20403;-90
2021/06/02 09:47:06;;;;;;;11.10;3.57;;;23.70;78.50;;;;;;5019560;28;20810;-90
2021/06/02 09:49:54;;;;;;;5.60;3.13;;;23.80;77.10;;;;;;5019768;28;20498;-90
2021/06/02 09:52:48;;;;;;;5.30;3.27;;;23.90;77.70;;;;;;5019191;28;20415;-90
2021/06/02 09:55:20;;;;;;;7.03;3.90;;;24.00;76.80;;;;;;5017556;28;20778;-90
2021/06/02 09:57:53;;;;;;;7.00;3.53;;;24.10;76.30;;;;;;5035850;28;20981;-90
2021/06/02 10:00:18;;;;;;;5.33;3.47;;;24.10;77.00;;;;;;5037081;28;20450;-90
2021/06/02 10:02:57;;;;;;;6.80;3.70;;;24.20;78.40;;;;;;5055443;28;20414;-90
2021/06/02 10:05:23;;;;;;;5.50;3.43;;;24.30;76.40;;;;;;5036247;28;20224;-92
2021/06/02 10:07:48;;;;;;;9.53;3.80;;;24.30;75.20;;;;;;5035729;28;20919;-92
2021/06/02 10:10:19;;;;;;;6.13;3.93;;;24.30;75.70;;;;;;5035754;28;20183;-90
2021/06/02 10:12:58;;;;;;;4.30;3.40;;;24.40;77.00;;;;;;5035537;28;20184;-91
2021/06/02 10:15:29;;;;;;;8.23;3.90;;;24.40;76.50;;;;;;5035943;28;20507;-91
2021/06/02 10:17:54;;;;;;;4.97;3.87;;;24.50;79.00;;;;;;5035979;28;20529;-91
2021/06/02 10:20:20;;;;;;;5.43;4.23;;;24.60;77.10;;;;;;5036214;28;21102;-92
2021/06/02 10:22:53;;;;;;;5.53;3.70;;;24.70;76.70;;;;;;5039815;28;20182;-91
2021/06/02 10:25:20;;;;;;;5.17;3.70;;;24.80;76.90;;;;;;5028998;28;20714;-91
2021/06/02 10:27:49;;;;;;;7.63;4.03;;;24.80;76.70;;;;;;5022333;28;20531;-92
2021/06/02 10:30:15;;;;;;;4.40;3.80;;;24.90;76.70;;;;;;5044357;28;20476;-91
2021/06/02 10:32:41;;;;;;;6.70;3.90;;;25.00;77.80;;;;;;5051130;23;20577;-76
2021/06/02 10:35:07;;;;;;;5.57;4.13;;;25.00;78.00;;;;;;5012572;28;20411;-77
2021/06/02 10:37:39;;;;;;;6.60;3.67;;;25.10;77.80;;;;;;5014151;28;20407;-76
2021/06/02 10:40:07;;;;;;;4.90;3.77;;;25.10;77.60;;;;;;5014589;28;20463;-76
2021/06/02 10:42:49;;;;;;;8.90;4.20;;;25.10;77.30;;;;;;5032026;28;20751;-78
2021/06/02 10:45:31;;;;;;;5.83;3.77;;;25.00;75.30;;;;;;5013691;28;20973;-76
2021/06/02 10:47:59;;;;;;;6.63;4.73;;;24.90;76.70;;;;;;5030714;28;20404;-76
2021/06/02 10:50:45;;;;;;;6.17;4.10;;;24.90;75.90;;;;;;5013678;28;20415;-76
2021/06/02 10:53:24;;;;;;;6.87;4.40;;;24.80;77.10;;;;;;5014461;28;20981;-76
2021/06/02 10:56:01;;;;;;;5.63;3.63;;;25.00;76.40;;;;;;5032003;28;20408;-76
2021/06/02 10:58:34;;;;;;;10.20;3.80;;;25.00;74.80;;;;;;5013425;28;20426;-76
2021/06/02 11:01:10;;;;;;;6.70;3.90;;;25.00;76.70;;;;;;5013861;28;20450;-76
2021/06/02 11:03:38;;;;;;;8.70;5.30;;;25.10;76.70;;;;;;5014255;28;20947;-76
2021/06/02 11:06:15;;;;;;;5.07;4.30;;;25.20;76.70;;;;;;5013752;28;20423;-76
2021/06/02 11:08:52;;;;;;;4.27;3.70;;;25.20;75.20;;;;;;5031220;28;20886;-77
2021/06/02 11:11:29;;;;;;;4.20;3.47;;;25.40;78.10;;;;;;5013619;28;20446;-76
2021/06/02 11:14:13;;;;;;;7.30;4.17;;;25.60;77.20;;;;;;5013003;28;20477;-76
2021/06/02 11:16:43;;;;;;;5.73;4.23;;;25.70;72.80;;;;;;5012871;28;20423;-76
2021/06/02 11:19:19;;;;;;;5.53;4.07;;;25.80;76.80;;;;;;5013292;28;20490;-76
2021/06/02 11:21:57;;;;;;;5.90;4.20;;;25.90;74.10;;;;;;5012858;28;20462;-76
2021/06/02 11:24:33;;;;;;;7.67;3.80;;;25.90;74.20;;;;;;5013030;28;20510;-76
2021/06/02 11:27:11;;;;;;;4.90;3.90;;;25.90;73.90;;;;;;5025290;28;20840;-76
2021/06/02 11:32:15;;;;;;;6.07;4.63;;;26.20;76.60;;;;;;5030994;28;20454;-77
2021/06/02 11:34:42;;;;;;;5.53;3.77;;;26.30;75.70;;;;;;5013552;28;20470;-76
2021/06/02 11:37:16;;;;;;;6.70;4.20;;;26.40;77.60;;;;;;5013652;28;20913;-76
2021/06/02 11:39:43;;;;;;;5.80;4.40;;;26.50;78.30;;;;;;5013115;28;20941;-76
2021/06/02 11:42:39;;;;;;;5.47;4.17;;;26.60;74.10;;;;;;5012996;28;20859;-77
2021/06/02 11:45:07;;;;;;;6.03;4.60;;;26.50;73.80;;;;;;5010393;28;20427;-76
2021/06/02 11:47:33;;;;;;;5.50;4.17;;;26.30;74.50;;;;;;5012091;28;20507;-76
2021/06/02 11:50:05;;;;;;;9.07;4.70;;;26.10;75.70;;;;;;5011213;28;20431;-76
2021/06/02 11:52:30;;;;;;;7.03;4.40;;;25.90;76.00;;;;;;5009331;28;20815;-76
2021/06/02 11:55:00;;;;;;;4.77;4.07;;;25.70;76.20;;;;;;5011100;28;20427;-76
2021/06/02 11:57:27;;;;;;;6.60;4.83;;;25.70;77.30;;;;;;5012545;28;20173;-76
2021/06/02 11:59:53;;;;;;;7.07;5.20;;;25.90;79.50;;;;;;5012451;28;20918;-76
2021/06/02 12:02:19;;;;;;;8.90;4.23;;;26.10;77.50;;;;;;5012283;28;20673;-76
2021/06/02 12:05:13;;;;;;;6.13;4.90;;;26.30;78.40;;;;;;5012556;28;20419;-77
2021/06/02 12:07:47;;;;;;;7.20;5.10;;;26.40;75.20;;;;;;5012500;28;20804;-76
2021/06/02 12:10:13;;;;;;;6.10;3.90;;;26.40;74.00;;;;;;5011669;28;20506;-76
2021/06/02 12:12:40;;;;;;;7.13;5.10;;;26.30;74.10;;;;;;5015890;28;20438;-81
2021/06/02 12:15:07;;;;;;;5.50;4.60;;;26.20;75.00;;;;;;5013152;28;20423;-83
2021/06/02 12:17:34;;;;;;;5.30;4.53;;;26.30;77.70;;;;;;5012140;28;20427;-83
2021/06/02 12:20:03;;;;;;;7.80;4.60;;;26.50;78.70;;;;;;5016790;28;20558;-83
2021/06/02 12:22:28;;;;;;;5.70;3.90;;;26.70;75.00;;;;;;5033342;28;20530;-81
2021/06/02 12:25:22;;;;;;;8.13;4.23;;;26.70;75.70;;;;;;5018031;28;20461;-83
2021/06/02 12:27:54;;;;;;;7.27;4.23;;;26.80;75.30;;;;;;5012929;28;20181;-83
2021/06/02 12:30:25;;;;;;;6.97;4.80;;;27.00;75.60;;;;;;5017440;28;20864;-83
2021/06/02 12:32:56;;;;;;;7.67;4.20;;;27.20;74.10;;;;;;5016835;28;20463;-83
2021/06/02 12:35:31;;;;;;;6.67;4.70;;;27.30;75.00;;;;;;5014983;28;20525;-83
2021/06/02 12:38:01;;;;;;;5.77;4.27;;;27.40;76.40;;;;;;5016157;28;20999;-83
2021/06/02 12:40:27;;;;;;;6.20;4.30;;;27.60;74.60;;;;;;5014956;28;20471;-83
2021/06/02 12:42:53;;;;;;;7.23;4.30;;;27.70;75.50;;;;;;5014571;28;20411;-83
2021/06/02 12:45:27;;;;;;;5.73;4.30;;;27.80;75.60;;;;;;5015303;28;20933;-83
2021/06/02 12:47:53;;;;;;;5.87;4.33;;;28.00;74.40;;;;;;5016253;28;20176;-83
2021/06/02 12:50:37;;;;;;;5.70;4.27;;;28.10;74.50;;;;;;5017000;28;20427;-82
2021/06/02 12:53:04;;;;;;;5.20;4.17;;;28.10;73.20;;;;;;5018027;28;20474;-82
2021/06/02 12:55:33;;;;;;;6.70;4.33;;;28.10;71.90;;;;;;5017733;28;20438;-80
2021/06/02 12:58:01;;;;;;;8.70;4.33;;;27.90;71.00;;;;;;5016343;28;20429;-76
2021/06/02 13:00:27;;;;;;;6.70;4.03;;;27.50;72.80;;;;;;5012257;28;20565;-77
2021/06/02 13:02:53;;;;;;;5.63;4.60;;;27.50;75.50;;;;;;5029867;28;20890;-76
2021/06/02 13:05:21;;;;;;;6.17;4.60;;;27.70;76.70;;;;;;5011867;28;20272;-77
2021/06/02 13:07:52;;;;;;;7.43;5.13;;;27.90;74.30;;;;;;5012486;28;20915;-77
2021/06/02 13:10:32;;;;;;;7.87;4.20;;;28.10;73.10;;;;;;5012358;28;20989;-77
2021/06/02 13:13:03;;;;;;;6.90;4.17;;;28.30;74.60;;;;;;5012422;28;20561;-77
2021/06/02 13:15:34;;;;;;;5.57;4.30;;;28.50;73.10;;;;;;5012546;28;20453;-77
2021/06/02 13:18:01;;;;;;;7.00;4.13;;;28.60;73.40;;;;;;5012308;28;20902;-77
2021/06/02 13:20:32;;;;;;;5.87;4.07;;;28.80;73.00;;;;;;5012291;28;20463;-77
2021/06/02 13:23:12;;;;;;;4.90;3.93;;;28.80;71.20;;;;;;5014727;28;20422;-77
2021/06/02 13:25:38;;;;;;;5.00;4.17;;;28.80;70.00;;;;;;5015973;28;20518;-77
2021/06/02 13:28:06;;;;;;;4.40;3.90;;;28.90;70.90;;;;;;5015459;28;20558;-77
2021/06/02 13:30:41;;;;;;;5.67;4.10;;;29.00;70.90;;;;;;5015833;28;20180;-77
2021/06/02 13:33:07;;;;;;;5.57;3.97;;;29.10;72.60;;;;;;5015408;28;20462;-76
2021/06/02 13:35:33;;;;;;;6.20;3.97;;;28.80;70.70;;;;;;5033097;28;20415;-77
2021/06/02 13:37:59;;;;;;;7.30;4.37;;;28.40;70.30;;;;;;5015657;28;20188;-76
2021/06/02 13:40:30;;;;;;;6.67;4.70;;;27.70;70.10;;;;;;5015329;28;20504;-77
2021/06/02 13:43:18;;;;;;;6.30;4.00;;;27.50;71.20;;;;;;5015500;28;20179;-76
2021/06/02 13:45:49;;;;;;;7.33;4.37;;;27.70;72.70;;;;;;5015478;28;21021;-77